Terminal Aerodrome Forecast
Issued by NWS

Home | Current Version | Previous Version | Graphics & Text | Print | Product List | Glossary On
Versions: 1 2 3 4 5 6 7 8 9 10 11 12 13 14 15 16 17
000
FTUS43 KBIS 250500 AAA
TAFDIK
TAF AMD
KDIK 250555Z 2506/2606 30016G22KT P6SM SCT030 BKN040
      TEMPO 2506/2508 SCT011 BKN035
     FM250800 31014G19KT P6SM OVC015
     FM251700 23010KT P6SM SCT025 BKN150
     FM251900 22011KT P6SM BKN080 OVC100
     FM260100 28012G17KT P6SM SCT004 OVC012=

USA.gov is the U.S. government's official web portal to all federal, state and local government web resources and services.